Time;durP1;ratioP1;P1;durP2;ratioP2;P2;SDS_P1;SDS_P2;PMS_P1;PMS_P2;Temp;Humidity;BMP_temperature;BMP_pressure;BME280_temperature;BME280_humidity;BME280_pressure;Samples;Min_cycle;Max_cycle;Signal;HPM_P1;HPM_P2
2021/11/25 00:00:50;;;;;;;48.95;33.10;;;6.30;99.90;;;;;;5061339;28;20395;-68
2021/11/25 00:03:16;;;;;;;47.90;32.13;;;6.30;99.90;;;;;;5061897;28;20383;-68
2021/11/25 00:05:42;;;;;;;51.00;33.72;;;6.30;99.90;;;;;;5061879;28;20493;-68
2021/11/25 00:08:08;;;;;;;51.55;33.65;;;6.30;99.90;;;;;;5061651;28;20437;-68
2021/11/25 00:10:35;;;;;;;51.50;34.38;;;6.30;99.90;;;;;;5059307;28;20037;-69
2021/11/25 00:13:02;;;;;;;57.20;35.17;;;6.30;99.90;;;;;;5064338;28;20439;-69
2021/11/25 00:15:27;;;;;;;55.63;35.08;;;6.30;99.90;;;;;;5062243;28;20037;-68
2021/11/25 00:17:53;;;;;;;51.65;32.95;;;6.30;99.90;;;;;;5057971;28;20375;-68
2021/11/25 00:20:20;;;;;;;55.47;34.72;;;6.30;99.90;;;;;;5057928;28;20109;-68
2021/11/25 00:22:46;;;;;;;59.65;36.83;;;6.30;99.90;;;;;;5059240;28;20114;-68
2021/11/25 00:25:12;;;;;;;54.88;35.03;;;6.30;99.90;;;;;;5061829;28;20550;-68
2021/11/25 00:27:40;;;;;;;53.83;34.35;;;6.30;99.90;;;;;;5066679;28;20776;-68
2021/11/25 00:30:07;;;;;;;55.53;34.75;;;6.30;99.90;;;;;;5060498;28;20057;-68
2021/11/25 00:32:33;;;;;;;58.40;36.63;;;6.20;99.90;;;;;;5063220;28;20087;-68
2021/11/25 00:34:59;;;;;;;56.67;35.88;;;6.30;99.90;;;;;;5063219;28;20036;-68
2021/11/25 00:37:25;;;;;;;55.35;35.17;;;6.20;99.90;;;;;;5063849;28;20040;-68
2021/11/25 00:39:50;;;;;;;54.08;35.35;;;6.20;99.90;;;;;;5061234;28;20054;-68
2021/11/25 00:42:16;;;;;;;57.72;36.00;;;6.20;99.90;;;;;;5062032;28;20064;-68
2021/11/25 00:44:42;;;;;;;51.08;34.33;;;6.30;99.90;;;;;;5063574;28;20032;-68
2021/11/25 00:47:08;;;;;;;55.97;34.95;;;6.30;99.90;;;;;;5061563;28;20044;-68
2021/11/25 00:49:34;;;;;;;59.33;37.47;;;6.30;99.90;;;;;;5059316;28;20076;-68
2021/11/25 00:52:00;;;;;;;61.30;37.05;;;6.20;99.90;;;;;;5061716;28;20540;-68
2021/11/25 00:54:25;;;;;;;59.80;37.05;;;6.30;99.90;;;;;;5062308;28;20129;-68
2021/11/25 00:56:51;;;;;;;56.20;36.88;;;6.30;99.90;;;;;;5063668;28;20032;-68
2021/11/25 00:59:16;;;;;;;63.42;39.80;;;6.20;99.90;;;;;;5061529;28;20094;-68
2021/11/25 01:01:43;;;;;;;60.17;37.60;;;6.20;99.90;;;;;;5063654;28;20655;-69
2021/11/25 01:04:09;;;;;;;60.50;37.47;;;6.30;99.90;;;;;;5061559;28;20048;-68
2021/11/25 01:06:34;;;;;;;64.88;37.45;;;6.20;99.90;;;;;;5063096;28;20047;-68
2021/11/25 01:09:00;;;;;;;64.60;38.42;;;6.20;99.90;;;;;;5061537;28;20134;-68
2021/11/25 01:11:26;;;;;;;59.08;36.92;;;6.20;99.90;;;;;;5059347;28;20537;-68
2021/11/25 01:13:53;;;;;;;62.22;38.67;;;6.30;99.90;;;;;;5060157;28;20039;-68
2021/11/25 01:16:21;;;;;;;62.17;38.70;;;6.30;99.90;;;;;;5063718;28;20483;-68
2021/11/25 01:18:47;;;;;;;58.45;36.70;;;6.30;99.90;;;;;;5060455;28;20086;-68
2021/11/25 01:21:13;;;;;;;63.13;37.75;;;6.20;99.90;;;;;;5060215;28;20036;-69
2021/11/25 01:23:39;;;;;;;64.45;38.17;;;6.30;99.90;;;;;;5063945;28;20089;-68
2021/11/25 01:26:05;;;;;;;58.20;36.90;;;6.30;99.90;;;;;;5063320;28;22405;-69
2021/11/25 01:28:31;;;;;;;67.85;39.63;;;6.30;99.90;;;;;;5059804;28;20044;-68
2021/11/25 01:31:00;;;;;;;64.15;39.10;;;6.30;99.90;;;;;;5059633;28;20059;-68
2021/11/25 01:33:27;;;;;;;63.00;38.63;;;6.40;99.90;;;;;;5076530;28;20040;-68
2021/11/25 01:35:53;;;;;;;62.90;38.35;;;6.30;99.90;;;;;;5061342;28;20435;-68
2021/11/25 01:38:20;;;;;;;64.32;38.63;;;6.30;99.90;;;;;;5062819;28;21420;-69
2021/11/25 01:40:47;;;;;;;64.53;38.53;;;6.30;99.90;;;;;;5062791;28;20040;-68
2021/11/25 01:43:13;;;;;;;62.67;37.05;;;6.40;99.90;;;;;;5092493;28;20506;-68
2021/11/25 01:45:39;;;;;;;61.10;36.45;;;6.40;99.90;;;;;;5061717;28;20060;-68
2021/11/25 01:48:08;;;;;;;64.35;37.95;;;6.30;99.90;;;;;;5046755;28;20048;-68
2021/11/25 01:50:34;;;;;;;63.10;37.72;;;6.40;99.90;;;;;;5060882;28;20533;-68
2021/11/25 01:53:00;;;;;;;59.53;36.67;;;6.40;99.90;;;;;;5059271;28;20083;-68
2021/11/25 01:55:27;;;;;;;56.63;35.95;;;6.40;99.90;;;;;;5062038;28;20120;-68
2021/11/25 01:57:54;;;;;;;62.45;38.55;;;6.50;99.90;;;;;;5058401;28;20090;-69
2021/11/25 02:00:42;;;;;;;61.00;37.30;;;6.50;99.90;;;;;;5060921;28;20032;-68
2021/11/25 02:03:08;;;;;;;63.55;38.13;;;6.50;99.90;;;;;;5061723;28;20037;-69
2021/11/25 02:05:35;;;;;;;68.55;40.47;;;6.40;99.90;;;;;;5062850;28;20046;-69
2021/11/25 02:08:02;;;;;;;62.38;37.72;;;6.40;99.90;;;;;;5060173;28;20052;-68
2021/11/25 02:10:28;;;;;;;63.38;37.85;;;6.40;99.90;;;;;;5061411;28;20122;-68
2021/11/25 02:12:53;;;;;;;65.45;38.25;;;6.40;99.90;;;;;;5061112;28;20044;-69
2021/11/25 02:15:19;;;;;;;66.63;37.90;;;6.40;99.90;;;;;;5059974;28;20037;-68
2021/11/25 02:17:45;;;;;;;64.47;37.58;;;6.40;99.90;;;;;;5059988;28;20094;-69
2021/11/25 02:20:12;;;;;;;69.05;39.85;;;6.40;99.90;;;;;;5057117;28;20037;-68
2021/11/25 02:22:40;;;;;;;71.95;39.40;;;6.40;99.90;;;;;;5060429;28;20044;-68
2021/11/25 02:25:08;;;;;;;69.65;37.85;;;6.30;99.90;;;;;;5062127;28;20044;-68
2021/11/25 02:27:34;;;;;;;75.47;40.35;;;6.30;99.90;;;;;;5062042;28;20054;-68
2021/11/25 02:29:59;;;;;;;74.40;39.17;;;6.30;99.90;;;;;;5092407;28;20041;-68
2021/11/25 02:32:42;;;;;;;74.60;41.63;;;6.30;99.90;;;;;;5063404;28;20051;-68
2021/11/25 02:35:24;;;;;;;71.75;39.25;;;6.30;99.90;;;;;;5098182;28;20044;-68
2021/11/25 02:37:53;;;;;;;72.55;41.35;;;6.30;99.90;;;;;;5066538;28;20386;-68
2021/11/25 02:40:43;;;;;;;79.38;41.13;;;6.20;99.90;;;;;;5063126;28;20094;-68
2021/11/25 02:43:12;;;;;;;67.90;37.20;;;6.30;99.90;;;;;;5061592;28;20553;-68
2021/11/25 02:45:45;;;;;;;69.60;40.13;;;6.30;99.90;;;;;;5094229;28;20040;-69
2021/11/25 02:48:12;;;;;;;79.47;40.33;;;6.30;99.90;;;;;;5096571;27;20367;-68
2021/11/25 02:50:38;;;;;;;78.25;40.28;;;6.30;99.90;;;;;;5061063;28;20071;-68
2021/11/25 02:53:04;;;;;;;78.07;40.05;;;6.30;99.90;;;;;;5048350;28;20767;-68
2021/11/25 02:55:30;;;;;;;74.25;39.95;;;6.30;99.90;;;;;;5064949;28;20068;-68
2021/11/25 02:57:55;;;;;;;76.25;40.53;;;6.30;99.90;;;;;;5065114;28;20043;-68
2021/11/25 03:00:21;;;;;;;68.22;38.30;;;6.30;99.90;;;;;;5062547;28;20033;-68
2021/11/25 03:02:57;;;;;;;72.32;38.08;;;6.40;99.90;;;;;;5064872;28;20418;-68
2021/11/25 03:05:23;;;;;;;77.93;40.67;;;6.40;99.90;;;;;;5066121;28;20119;-68
2021/11/25 03:07:49;;;;;;;72.70;40.03;;;6.40;99.90;;;;;;5064587;28;20066;-68
2021/11/25 03:10:14;;;;;;;74.65;39.70;;;6.40;99.90;;;;;;5059955;28;20058;-68
2021/11/25 03:12:40;;;;;;;78.60;41.45;;;6.40;99.90;;;;;;5062867;28;20087;-68
2021/11/25 03:15:06;;;;;;;80.50;41.75;;;6.50;99.90;;;;;;5061328;28;20056;-68
2021/11/25 03:17:31;;;;;;;81.13;41.15;;;6.50;99.90;;;;;;5061814;28;20106;-68
2021/11/25 03:19:57;;;;;;;83.40;41.10;;;6.40;99.90;;;;;;5060934;28;20487;-68
2021/11/25 03:22:23;;;;;;;88.95;42.90;;;6.50;99.90;;;;;;5061917;28;20091;-68
2021/11/25 03:24:48;;;;;;;76.03;39.97;;;6.40;99.90;;;;;;5060953;28;20028;-68
2021/11/25 03:27:14;;;;;;;78.40;40.10;;;6.40;99.90;;;;;;5063047;28;20055;-68
2021/11/25 03:29:39;;;;;;;86.72;43.47;;;6.30;99.90;;;;;;5060877;28;20048;-68
2021/11/25 03:32:05;;;;;;;83.88;42.35;;;6.20;99.90;;;;;;5060092;28;20159;-68
2021/11/25 03:34:32;;;;;;;84.60;42.47;;;6.20;99.90;;;;;;5063859;28;20467;-68
2021/11/25 03:36:57;;;;;;;85.05;42.30;;;6.20;99.90;;;;;;5061664;28;20067;-68
2021/11/25 03:39:23;;;;;;;93.15;43.85;;;6.20;99.90;;;;;;5045726;28;20076;-68
2021/11/25 03:41:48;;;;;;;85.47;42.47;;;6.20;99.90;;;;;;5061275;28;20056;-68
2021/11/25 03:44:14;;;;;;;92.05;42.38;;;6.20;99.90;;;;;;5061137;28;20063;-68
2021/11/25 03:46:40;;;;;;;88.53;42.45;;;6.20;99.90;;;;;;5062531;28;20033;-68
2021/11/25 03:49:05;;;;;;;91.65;45.75;;;6.10;99.90;;;;;;5062619;28;20048;-68
2021/11/25 03:51:31;;;;;;;87.68;42.95;;;6.20;99.90;;;;;;5061973;28;20123;-68
2021/11/25 03:53:57;;;;;;;90.78;43.60;;;6.10;99.90;;;;;;5061317;28;20087;-68
2021/11/25 03:56:23;;;;;;;89.43;41.25;;;6.10;99.90;;;;;;5062896;28;20546;-68
2021/11/25 03:58:48;;;;;;;95.85;45.30;;;6.10;99.90;;;;;;5059870;28;20032;-68
2021/11/25 04:01:16;;;;;;;90.93;44.08;;;6.10;99.90;;;;;;5061269;28;20441;-68
2021/11/25 04:03:42;;;;;;;88.78;45.30;;;6.10;99.90;;;;;;5065218;28;20085;-68
2021/11/25 04:06:08;;;;;;;92.53;43.53;;;6.10;99.90;;;;;;5063062;28;20114;-68
2021/11/25 04:08:34;;;;;;;79.38;41.15;;;6.10;99.90;;;;;;5062322;28;20040;-68
2021/11/25 04:11:00;;;;;;;93.22;44.30;;;6.00;99.90;;;;;;5060604;28;20040;-68
2021/11/25 04:13:29;;;;;;;88.43;42.83;;;6.10;99.90;;;;;;5064668;28;20041;-68
2021/11/25 04:15:54;;;;;;;96.13;46.03;;;6.00;99.90;;;;;;5062802;28;20541;-68
2021/11/25 04:18:20;;;;;;;78.25;41.30;;;6.10;99.90;;;;;;5062994;28;20048;-68
2021/11/25 04:20:46;;;;;;;83.35;42.47;;;6.10;99.90;;;;;;5061029;28;20033;-68
2021/11/25 04:23:11;;;;;;;83.85;42.45;;;6.10;99.90;;;;;;5061511;28;20044;-68
2021/11/25 04:25:37;;;;;;;78.55;40.15;;;6.00;99.90;;;;;;5064417;28;20052;-68
2021/11/25 04:28:04;;;;;;;79.35;40.92;;;6.10;99.90;;;;;;5062100;28;20569;-68
2021/11/25 04:35:49;;;;;;;85.47;42.78;;;6.00;99.90;;;;;;5061036;28;20032;-68
2021/11/25 04:38:17;;;;;;;80.80;41.72;;;6.00;99.90;;;;;;5061107;28;20045;-68
2021/11/25 04:40:47;;;;;;;83.40;42.63;;;5.90;99.90;;;;;;5061310;28;20041;-68
2021/11/25 04:43:14;;;;;;;80.93;41.78;;;5.90;99.90;;;;;;5064078;28;20083;-68
2021/11/25 04:45:43;;;;;;;83.57;43.25;;;5.90;99.90;;;;;;5063379;28;20044;-68
2021/11/25 04:48:09;;;;;;;81.53;44.70;;;5.90;99.90;;;;;;5062066;28;20037;-68
2021/11/25 04:50:37;;;;;;;80.93;43.88;;;5.80;99.90;;;;;;5059759;28;20119;-68
2021/11/25 04:53:03;;;;;;;81.13;44.03;;;5.90;99.90;;;;;;5061885;28;20650;-68
2021/11/25 04:55:29;;;;;;;86.88;47.55;;;5.80;99.90;;;;;;5061795;28;20051;-68
2021/11/25 04:57:54;;;;;;;78.03;44.70;;;5.80;99.90;;;;;;5043848;28;20041;-68
2021/11/25 05:00:21;;;;;;;74.32;44.95;;;5.80;99.90;;;;;;5061564;28;20667;-68
2021/11/25 05:02:47;;;;;;;76.00;42.70;;;5.80;99.90;;;;;;5063074;28;20391;-68
2021/11/25 05:05:13;;;;;;;75.55;43.08;;;5.70;99.90;;;;;;5060613;28;20051;-69
2021/11/25 05:07:39;;;;;;;73.22;43.42;;;5.70;99.90;;;;;;5060754;28;20044;-68
2021/11/25 05:10:06;;;;;;;72.20;42.53;;;5.80;99.90;;;;;;5056478;28;20055;-68
2021/11/25 05:12:32;;;;;;;73.88;43.92;;;5.70;99.90;;;;;;5083889;28;20041;-68
2021/11/25 05:14:58;;;;;;;68.15;42.30;;;5.60;99.90;;;;;;5065668;28;20105;-68
2021/11/25 05:17:24;;;;;;;73.05;45.42;;;5.70;99.90;;;;;;5063587;28;20058;-68
2021/11/25 05:19:50;;;;;;;68.32;42.30;;;5.70;99.90;;;;;;5058789;28;20185;-68
2021/11/25 05:22:16;;;;;;;71.00;44.47;;;5.70;99.90;;;;;;5060092;28;20101;-68
2021/11/25 05:24:43;;;;;;;69.32;43.35;;;5.60;99.90;;;;;;5060883;28;20045;-68
2021/11/25 05:27:09;;;;;;;66.13;43.55;;;5.50;99.90;;;;;;5064532;28;20165;-68
2021/11/25 05:29:36;;;;;;;74.57;42.90;;;5.50;99.90;;;;;;5061080;28;20036;-68
2021/11/25 05:32:06;;;;;;;66.57;43.55;;;5.50;99.90;;;;;;5061242;28;20055;-68
2021/11/25 05:34:32;;;;;;;69.40;43.42;;;5.50;99.90;;;;;;5092703;28;20052;-68
2021/11/25 05:36:57;;;;;;;76.03;45.40;;;5.40;99.90;;;;;;5061997;28;20031;-69
2021/11/25 05:39:23;;;;;;;71.40;43.50;;;5.50;99.90;;;;;;5059260;28;20032;-68
2021/11/25 05:41:49;;;;;;;70.70;44.97;;;5.40;99.90;;;;;;5061288;28;20883;-68
2021/11/25 05:44:24;;;;;;;71.05;44.53;;;5.40;99.90;;;;;;5095966;28;20044;-68
2021/11/25 05:46:50;;;;;;;65.70;44.47;;;5.40;99.90;;;;;;5061374;28;20056;-68
2021/11/25 05:49:16;;;;;;;72.13;45.95;;;5.40;99.90;;;;;;5060451;28;20102;-69
2021/11/25 05:51:41;;;;;;;73.43;45.05;;;5.40;99.90;;;;;;5062341;28;20076;-68
2021/11/25 05:54:07;;;;;;;68.68;43.05;;;5.40;99.90;;;;;;5059145;28;20075;-69
2021/11/25 05:56:33;;;;;;;71.47;45.35;;;5.40;99.90;;;;;;5058633;28;20029;-68
2021/11/25 05:58:59;;;;;;;72.75;45.22;;;5.40;99.90;;;;;;5060933;28;20025;-68
2021/11/25 06:01:24;;;;;;;70.03;44.65;;;5.40;99.90;;;;;;5059736;28;20048;-68
2021/11/25 06:03:52;;;;;;;75.70;46.83;;;5.40;99.90;;;;;;5063404;28;20071;-68
2021/11/25 06:06:19;;;;;;;73.43;45.88;;;5.40;99.90;;;;;;5094395;28;20048;-68
2021/11/25 06:08:45;;;;;;;75.93;47.35;;;5.40;99.90;;;;;;5059502;28;20460;-68
2021/11/25 06:11:11;;;;;;;72.80;48.63;;;5.40;99.90;;;;;;5060654;28;20406;-68
2021/11/25 06:13:36;;;;;;;68.47;45.28;;;5.40;99.90;;;;;;5061330;28;20402;-68
2021/11/25 06:16:02;;;;;;;72.72;48.60;;;5.40;99.90;;;;;;5065564;28;20033;-68
2021/11/25 06:18:28;;;;;;;72.43;46.05;;;5.40;99.90;;;;;;5061595;28;20040;-68
2021/11/25 06:20:54;;;;;;;68.78;46.97;;;5.40;99.90;;;;;;5061408;28;20040;-68
2021/11/25 06:23:20;;;;;;;71.72;47.47;;;5.40;99.90;;;;;;5062584;28;20040;-68
2021/11/25 06:25:46;;;;;;;69.28;46.55;;;5.40;99.90;;;;;;5060990;28;20489;-68
2021/11/25 06:28:13;;;;;;;73.28;49.10;;;5.40;99.90;;;;;;5060438;28;20067;-68
2021/11/25 06:30:39;;;;;;;69.45;48.53;;;5.40;99.90;;;;;;5060976;28;20044;-68
2021/11/25 06:33:04;;;;;;;69.38;48.25;;;5.40;99.90;;;;;;5060092;28;20942;-68
2021/11/25 06:35:30;;;;;;;76.50;49.40;;;5.40;99.90;;;;;;5058386;28;20051;-68
2021/11/25 06:37:56;;;;;;;72.75;47.95;;;5.40;99.90;;;;;;5061274;28;20379;-68
2021/11/25 06:40:27;;;;;;;69.60;47.42;;;5.50;99.90;;;;;;5059764;28;20040;-68
2021/11/25 06:42:57;;;;;;;70.07;49.78;;;5.40;99.90;;;;;;5061626;28;20055;-68
2021/11/25 06:45:24;;;;;;;66.97;47.10;;;5.40;99.90;;;;;;5061348;28;21480;-68
2021/11/25 06:47:50;;;;;;;71.97;50.58;;;5.40;99.90;;;;;;5059726;28;20514;-68
2021/11/25 06:50:17;;;;;;;73.07;48.38;;;5.40;99.90;;;;;;5057233;28;20058;-69
2021/11/25 06:52:43;;;;;;;74.85;48.10;;;5.40;99.90;;;;;;5059011;28;20041;-68
2021/11/25 06:55:10;;;;;;;68.68;48.00;;;5.30;99.90;;;;;;5091772;28;20843;-68
2021/11/25 06:57:37;;;;;;;70.88;48.92;;;5.30;99.90;;;;;;5061949;28;20029;-68
2021/11/25 07:00:14;;;;;;;64.82;46.35;;;5.40;99.90;;;;;;5057673;28;20915;-68
2021/11/25 07:02:40;;;;;;;68.22;48.55;;;5.30;99.90;;;;;;5058852;28;20090;-68
2021/11/25 07:05:07;;;;;;;70.80;48.55;;;5.30;99.90;;;;;;5056497;28;20044;-68
2021/11/25 07:07:34;;;;;;;68.95;48.38;;;5.30;99.90;;;;;;5059014;28;20055;-68
2021/11/25 07:10:00;;;;;;;68.22;46.47;;;5.30;99.90;;;;;;5090581;28;20070;-68
2021/11/25 07:12:29;;;;;;;70.25;48.75;;;5.30;99.90;;;;;;5059511;28;20496;-69
2021/11/25 07:14:55;;;;;;;69.32;46.83;;;5.30;99.90;;;;;;5059242;28;20125;-68
2021/11/25 07:17:21;;;;;;;70.10;49.72;;;5.30;99.90;;;;;;5060710;28;20488;-69
2021/11/25 07:19:47;;;;;;;72.22;49.33;;;5.30;99.90;;;;;;5055346;28;20115;-69
2021/11/25 07:22:12;;;;;;;71.28;49.28;;;5.30;99.90;;;;;;5057030;28;20040;-69
2021/11/25 07:24:38;;;;;;;71.75;47.90;;;5.30;99.90;;;;;;5056468;28;20438;-69
2021/11/25 07:27:04;;;;;;;72.63;48.22;;;5.30;99.90;;;;;;5060660;28;20094;-69
2021/11/25 07:29:30;;;;;;;72.95;49.20;;;5.30;99.90;;;;;;5054521;28;20316;-69
2021/11/25 07:31:56;;;;;;;70.78;48.70;;;5.30;99.90;;;;;;5057447;28;20178;-69
2021/11/25 07:34:22;;;;;;;71.90;47.83;;;5.40;99.90;;;;;;5058240;28;20048;-69
2021/11/25 07:36:48;;;;;;;77.97;50.22;;;5.30;99.90;;;;;;5055863;28;20093;-69
2021/11/25 07:39:14;;;;;;;71.70;47.13;;;5.30;99.90;;;;;;5054042;28;21748;-69
2021/11/25 07:41:40;;;;;;;72.70;47.75;;;5.40;99.90;;;;;;5049602;28;20530;-69
2021/11/25 07:44:07;;;;;;;69.55;47.97;;;5.40;99.90;;;;;;5046328;28;20041;-69
2021/11/25 07:46:33;;;;;;;74.30;48.22;;;5.40;99.90;;;;;;5046131;28;20056;-69
2021/11/25 07:49:01;;;;;;;79.82;51.58;;;5.40;99.90;;;;;;5043020;28;20059;-69
2021/11/25 07:51:27;;;;;;;76.30;49.22;;;5.40;99.90;;;;;;5045622;28;20048;-69
2021/11/25 07:53:52;;;;;;;76.22;49.83;;;5.40;99.90;;;;;;5043523;28;20056;-69
2021/11/25 07:56:19;;;;;;;80.80;52.10;;;5.40;99.90;;;;;;5045221;28;20048;-69
2021/11/25 07:58:45;;;;;;;77.28;48.95;;;5.40;99.90;;;;;;5077611;28;20037;-69
2021/11/25 08:01:10;;;;;;;71.40;48.35;;;5.50;99.90;;;;;;5049142;28;20048;-69
2021/11/25 08:03:36;;;;;;;80.18;49.75;;;5.50;99.90;;;;;;5047342;28;20068;-69
2021/11/25 08:06:02;;;;;;;74.38;48.63;;;5.50;99.90;;;;;;5081968;28;20102;-69
2021/11/25 08:08:28;;;;;;;77.40;49.13;;;5.50;99.90;;;;;;5056958;28;20351;-69
2021/11/25 08:10:55;;;;;;;81.50;49.63;;;5.50;99.90;;;;;;5056512;28;20978;-68
2021/11/25 08:13:21;;;;;;;79.90;49.85;;;5.50;99.90;;;;;;5058901;28;20099;-68
2021/11/25 08:15:47;;;;;;;71.85;48.97;;;5.50;99.90;;;;;;5056286;28;20044;-68
2021/11/25 08:18:13;;;;;;;85.38;51.42;;;5.60;99.90;;;;;;5056748;28;20905;-68
2021/11/25 08:20:38;;;;;;;82.65;50.95;;;5.60;99.90;;;;;;5045432;28;20436;-69
2021/11/25 08:23:04;;;;;;;88.65;53.08;;;5.60;99.90;;;;;;5047102;28;20422;-69
2021/11/25 08:25:30;;;;;;;81.72;51.92;;;5.60;99.90;;;;;;5046406;28;20040;-69
2021/11/25 08:27:57;;;;;;;81.72;50.90;;;5.60;99.90;;;;;;5046088;28;20041;-69
2021/11/25 08:30:25;;;;;;;86.50;51.13;;;5.60;99.90;;;;;;5053028;28;20044;-69
2021/11/25 08:32:50;;;;;;;91.72;52.33;;;5.60;99.90;;;;;;5040660;28;20519;-69
2021/11/25 08:35:17;;;;;;;85.75;51.60;;;5.60;99.90;;;;;;5060157;28;20099;-69
2021/11/25 08:37:43;;;;;;;92.82;55.22;;;5.60;99.90;;;;;;5059013;28;20638;-69
2021/11/25 08:40:12;;;;;;;91.32;53.50;;;5.60;99.90;;;;;;5054396;28;20047;-69
2021/11/25 08:42:38;;;;;;;95.80;55.63;;;5.60;99.90;;;;;;5090661;28;20163;-69
2021/11/25 08:45:05;;;;;;;93.72;54.85;;;5.60;99.90;;;;;;5058125;28;20041;-69
2021/11/25 08:47:31;;;;;;;99.57;56.67;;;5.60;99.90;;;;;;5062426;28;20044;-69
2021/11/25 08:49:57;;;;;;;91.97;55.80;;;5.60;99.90;;;;;;5058372;28;20363;-69
2021/11/25 08:52:23;;;;;;;98.55;54.63;;;5.70;99.90;;;;;;5061833;28;20483;-69
2021/11/25 08:54:49;;;;;;;100.85;54.55;;;5.70;99.90;;;;;;5062922;28;20032;-69
2021/11/25 08:57:16;;;;;;;101.63;54.72;;;5.70;99.90;;;;;;5061249;28;20076;-69
2021/11/25 08:59:42;;;;;;;109.75;60.55;;;5.70;99.90;;;;;;5060921;28;20446;-69
2021/11/25 09:02:10;;;;;;;102.63;56.75;;;5.80;99.90;;;;;;5090910;27;20059;-69
2021/11/25 09:04:36;;;;;;;98.75;55.17;;;5.80;99.90;;;;;;5062294;28;20033;-69
2021/11/25 09:07:02;;;;;;;101.25;57.38;;;5.90;99.90;;;;;;5060683;28;20040;-69
2021/11/25 09:09:29;;;;;;;106.50;58.13;;;5.90;99.90;;;;;;5092650;28;20127;-69
2021/11/25 09:11:55;;;;;;;112.25;56.78;;;5.90;99.90;;;;;;5061929;28;20037;-69
2021/11/25 09:14:21;;;;;;;110.95;57.38;;;6.00;99.90;;;;;;5063526;28;20044;-68
2021/11/25 09:16:47;;;;;;;112.65;58.45;;;6.00;99.90;;;;;;5062694;28;20054;-68
2021/11/25 09:19:14;;;;;;;104.53;56.33;;;6.10;99.90;;;;;;5061326;28;20028;-69
2021/11/25 09:21:40;;;;;;;109.53;58.40;;;6.10;99.90;;;;;;5063941;28;20182;-68
2021/11/25 09:24:06;;;;;;;101.45;56.38;;;6.10;99.90;;;;;;5062127;28;20511;-68
2021/11/25 09:26:35;;;;;;;97.25;55.13;;;6.10;99.90;;;;;;5047052;28;20436;-68
2021/11/25 09:29:01;;;;;;;101.55;55.35;;;6.20;99.90;;;;;;5061056;28;20053;-70
2021/11/25 09:31:29;;;;;;;115.07;58.55;;;6.30;99.90;;;;;;5060804;28;20059;-69
2021/11/25 09:33:56;;;;;;;107.35;57.88;;;6.30;99.90;;;;;;5092356;28;20573;-70
2021/11/25 09:36:24;;;;;;;101.30;55.80;;;6.30;99.90;;;;;;5044591;28;20033;-69
2021/11/25 09:38:50;;;;;;;106.80;56.85;;;6.40;99.90;;;;;;5061205;28;20048;-68
2021/11/25 09:41:16;;;;;;;104.63;57.17;;;6.40;99.90;;;;;;5060635;28;20040;-68
2021/11/25 09:43:42;;;;;;;108.10;57.03;;;6.50;99.90;;;;;;5059440;28;20044;-68
2021/11/25 09:46:10;;;;;;;94.75;53.42;;;6.00;99.90;;;;;;5059277;28;20454;-69
2021/11/25 09:48:38;;;;;;;92.53;53.05;;;6.50;99.90;;;;;;5058593;28;20115;-68
2021/11/25 09:51:05;;;;;;;99.72;53.40;;;6.60;99.90;;;;;;5059288;28;20040;-69
2021/11/25 09:53:33;;;;;;;103.18;52.50;;;6.60;99.90;;;;;;5091450;28;20512;-69
2021/11/25 09:56:00;;;;;;;99.93;53.38;;;6.70;99.90;;;;;;5059010;28;20037;-68
2021/11/25 09:58:28;;;;;;;101.88;55.70;;;6.70;99.90;;;;;;5060220;28;20055;-69
2021/11/25 10:00:58;;;;;;;94.20;53.53;;;6.80;99.90;;;;;;5059983;28;20044;-69
2021/11/25 10:03:24;;;;;;;92.20;52.30;;;6.80;99.90;;;;;;5061535;28;20048;-69
2021/11/25 10:05:54;;;;;;;98.35;54.40;;;6.90;99.90;;;;;;5061349;28;20036;-69
2021/11/25 10:08:35;;;;;;;80.47;48.80;;;7.10;99.90;;;;;;5061423;28;20041;-69
2021/11/25 10:11:03;;;;;;;82.60;48.15;;;7.20;99.90;;;;;;5058371;28;20051;-69
2021/11/25 10:13:47;;;;;;;76.35;47.67;;;7.30;99.90;;;;;;5059519;28;20045;-69
2021/11/25 10:16:25;;;;;;;77.05;45.92;;;7.40;99.90;;;;;;5092991;28;20049;-69
2021/11/25 10:18:51;;;;;;;78.50;46.80;;;7.50;99.90;;;;;;5059298;28;20036;-69
2021/11/25 10:21:20;;;;;;;69.80;43.75;;;7.50;99.90;;;;;;5059349;28;20051;-69
2021/11/25 10:23:48;;;;;;;71.50;42.97;;;7.50;99.90;;;;;;5061432;28;20082;-69
2021/11/25 10:26:21;;;;;;;70.47;41.95;;;7.60;99.90;;;;;;5060639;28;21009;-69
2021/11/25 10:28:54;;;;;;;67.45;41.95;;;7.50;99.90;;;;;;5061665;28;20048;-69
2021/11/25 10:31:29;;;;;;;69.75;42.15;;;7.60;99.90;;;;;;5060993;28;20051;-69
2021/11/25 10:34:14;;;;;;;68.73;41.10;;;7.70;99.90;;;;;;5060123;28;20146;-69
2021/11/25 10:42:06;;;;;;;67.47;40.83;;;7.80;99.90;;;;;;5062674;28;20077;-69
2021/11/25 10:44:40;;;;;;;62.90;39.80;;;7.90;99.90;;;;;;5060041;28;20040;-69
2021/11/25 10:47:14;;;;;;;66.53;39.40;;;7.90;99.90;;;;;;5059605;28;20071;-68
2021/11/25 10:49:53;;;;;;;67.93;39.95;;;8.00;99.90;;;;;;5060062;28;20490;-69
2021/11/25 10:52:29;;;;;;;64.78;39.30;;;8.10;99.90;;;;;;5060196;28;20037;-68
2021/11/25 10:55:01;;;;;;;57.90;37.53;;;8.10;99.90;;;;;;5060272;28;20124;-69
2021/11/25 10:57:43;;;;;;;61.25;37.33;;;8.20;99.90;;;;;;5060895;28;20048;-69
2021/11/25 11:00:33;;;;;;;58.88;34.83;;;8.20;99.90;;;;;;5061476;28;20033;-68
2021/11/25 11:03:09;;;;;;;52.45;32.13;;;8.30;99.90;;;;;;5060014;28;20052;-69
2021/11/25 11:05:45;;;;;;;;;;;8.40;99.90;;;;;;5097275;28;20101;-69
2021/11/25 11:08:11;;;;;;;48.30;29.40;;;8.30;99.90;;;;;;5066627;28;19947;-69
2021/11/25 11:10:38;;;;;;;47.08;28.77;;;8.40;99.90;;;;;;5064128;28;20095;-68
2021/11/25 11:15:55;;;;;;;42.42;28.67;;;8.50;99.90;;;;;;5067299;28;20041;-68
2021/11/25 11:21:40;;;;;;;43.92;27.00;;;8.50;99.90;;;;;;5067631;28;20056;-68
2021/11/25 11:24:27;;;;;;;48.38;28.63;;;8.50;99.90;;;;;;5048847;28;20039;-68
2021/11/25 11:26:54;;;;;;;39.38;25.40;;;8.60;99.90;;;;;;5061104;28;20093;-68
2021/11/25 11:29:26;;;;;;;41.22;25.02;;;8.60;99.90;;;;;;5065071;28;20043;-69
2021/11/25 11:31:56;;;;;;;36.42;21.77;;;8.60;99.90;;;;;;5061438;28;20075;-68
2021/11/25 11:34:23;;;;;;;28.60;19.42;;;8.60;99.90;;;;;;5058499;28;20132;-68
2021/11/25 11:36:52;;;;;;;26.77;16.98;;;8.60;99.90;;;;;;5063664;28;20039;-68
2021/11/25 11:39:21;;;;;;;30.45;16.25;;;8.60;99.90;;;;;;5064268;28;20507;-69
2021/11/25 11:41:49;;;;;;;27.83;13.77;;;8.60;99.90;;;;;;5064735;28;20045;-69
2021/11/25 11:44:20;;;;;;;23.35;14.27;;;8.70;99.90;;;;;;5060140;28;20909;-68
2021/11/25 11:46:46;;;;;;;25.75;13.18;;;8.80;99.90;;;;;;5062057;28;20119;-68
2021/11/25 11:49:13;;;;;;;20.25;11.07;;;8.80;99.90;;;;;;5061765;28;20130;-69
2021/11/25 11:51:39;;;;;;;19.77;10.50;;;9.00;99.90;;;;;;5072394;28;20098;-69
2021/11/25 11:54:19;;;;;;;20.67;9.40;;;9.10;99.90;;;;;;5064104;28;20037;-68
2021/11/25 11:56:46;;;;;;;14.60;5.95;;;9.10;99.90;;;;;;5057351;28;20106;-68
2021/11/25 11:59:15;;;;;;;13.95;5.97;;;9.20;99.90;;;;;;5059335;28;20028;-68
2021/11/25 12:01:42;;;;;;;16.30;4.55;;;9.20;99.90;;;;;;5060389;28;20070;-68
2021/11/25 12:04:12;;;;;;;15.15;4.57;;;9.20;99.90;;;;;;5057696;28;20114;-69
2021/11/25 12:06:45;;;;;;;15.95;4.22;;;9.20;99.90;;;;;;5058286;28;20047;-69
2021/11/25 12:09:14;;;;;;;11.40;2.40;;;9.20;99.90;;;;;;5057331;28;20052;-69
2021/11/25 12:11:44;;;;;;;12.10;3.22;;;9.20;99.90;;;;;;5060869;28;20049;-68
2021/11/25 12:14:17;;;;;;;10.10;2.40;;;9.20;99.90;;;;;;5062168;28;20120;-69
2021/11/25 12:16:49;;;;;;;11.90;2.63;;;9.20;99.90;;;;;;5061465;28;20556;-69
2021/11/25 12:19:26;;;;;;;8.52;1.35;;;9.20;99.90;;;;;;5061050;28;20036;-69
2021/11/25 12:21:54;;;;;;;8.93;1.50;;;9.20;99.90;;;;;;5059256;28;20506;-69
2021/11/25 12:24:41;;;;;;;11.35;1.15;;;9.20;99.90;;;;;;5064315;28;20049;-69
2021/11/25 12:27:39;;;;;;;6.97;1.23;;;9.30;99.90;;;;;;5063816;28;20497;-69
2021/11/25 12:30:10;;;;;;;11.23;1.95;;;9.40;99.90;;;;;;5063534;28;20071;-69
2021/11/25 12:32:47;;;;;;;7.90;1.20;;;9.50;99.90;;;;;;5059196;28;20044;-68
2021/11/25 12:35:17;;;;;;;5.88;1.23;;;9.60;99.90;;;;;;5060926;28;20057;-68
2021/11/25 12:37:46;;;;;;;11.68;1.60;;;9.60;99.90;;;;;;5047161;28;20040;-68
2021/11/25 12:40:17;;;;;;;9.77;1.38;;;9.70;99.90;;;;;;5058876;28;20093;-68
2021/11/25 12:42:49;;;;;;;10.95;1.27;;;9.70;99.90;;;;;;5059144;28;20041;-68
2021/11/25 12:45:31;;;;;;;7.65;1.23;;;9.70;99.90;;;;;;5093463;28;20134;-68
2021/11/25 12:48:08;;;;;;;9.73;1.75;;;9.80;99.90;;;;;;5064143;28;20778;-68
2021/11/25 12:50:39;;;;;;;6.28;1.02;;;9.70;99.90;;;;;;5061400;28;20497;-68
2021/11/25 12:53:24;;;;;;;6.40;0.90;;;9.70;99.90;;;;;;5060084;28;20041;-68
2021/11/25 12:56:02;;;;;;;6.32;0.98;;;9.70;99.90;;;;;;5067803;28;20037;-68
2021/11/25 12:58:59;;;;;;;9.13;0.98;;;9.90;99.90;;;;;;5062761;28;20122;-68